sensor_id;sensor_type;location;lat;lon;timestamp;P1;durP1;ratioP1;P2;durP2;ratioP2
19621;SDS011;9958;33.196;-97.114;2022-10-16T00:01:07;1.75;;;1.65;;
19621;SDS011;9958;33.196;-97.114;2022-10-16T00:03:38;3.85;;;1.88;;
19621;SDS011;9958;33.196;-97.114;2022-10-16T00:06:07;2.85;;;1.65;;
19621;SDS011;9958;33.196;-97.114;2022-10-16T00:08:37;1.55;;;1.45;;
19621;SDS011;9958;33.196;-97.114;2022-10-16T00:11:06;2.30;;;1.70;;
19621;SDS011;9958;33.196;-97.114;2022-10-16T00:13:36;1.70;;;1.52;;
19621;SDS011;9958;33.196;-97.114;2022-10-16T00:16:06;2.28;;;1.50;;
19621;SDS011;9958;33.196;-97.114;2022-10-16T00:18:35;1.77;;;1.48;;
19621;SDS011;9958;33.196;-97.114;2022-10-16T00:21:06;2.45;;;1.50;;
19621;SDS011;9958;33.196;-97.114;2022-10-16T00:23:35;1.60;;;1.50;;
19621;SDS011;9958;33.196;-97.114;2022-10-16T00:26:04;2.00;;;1.55;;
19621;SDS011;9958;33.196;-97.114;2022-10-16T00:28:34;1.60;;;1.50;;
19621;SDS011;9958;33.196;-97.114;2022-10-16T00:31:03;1.95;;;1.80;;
19621;SDS011;9958;33.196;-97.114;2022-10-16T00:33:32;1.73;;;1.63;;
19621;SDS011;9958;33.196;-97.114;2022-10-16T00:36:03;2.42;;;1.60;;
19621;SDS011;9958;33.196;-97.114;2022-10-16T00:38:32;1.77;;;1.67;;
19621;SDS011;9958;33.196;-97.114;2022-10-16T00:41:01;3.05;;;1.70;;
19621;SDS011;9958;33.196;-97.114;2022-10-16T00:43:34;2.25;;;1.65;;
19621;SDS011;9958;33.196;-97.114;2022-10-16T00:46:05;2.53;;;1.85;;
19621;SDS011;9958;33.196;-97.114;2022-10-16T00:48:37;4.57;;;1.83;;
19621;SDS011;9958;33.196;-97.114;2022-10-16T00:51:07;2.15;;;1.92;;
19621;SDS011;9958;33.196;-97.114;2022-10-16T00:53:36;3.08;;;1.70;;
19621;SDS011;9958;33.196;-97.114;2022-10-16T00:56:04;1.67;;;1.50;;
19621;SDS011;9958;33.196;-97.114;2022-10-16T00:58:33;2.78;;;1.73;;
19621;SDS011;9958;33.196;-97.114;2022-10-16T01:01:02;2.60;;;1.88;;
19621;SDS011;9958;33.196;-97.114;2022-10-16T01:03:30;2.38;;;1.67;;
19621;SDS011;9958;33.196;-97.114;2022-10-16T01:06:05;2.25;;;1.70;;
19621;SDS011;9958;33.196;-97.114;2022-10-16T01:08:52;1.70;;;1.60;;
19621;SDS011;9958;33.196;-97.114;2022-10-16T01:11:30;2.45;;;1.88;;
19621;SDS011;9958;33.196;-97.114;2022-10-16T01:14:04;4.68;;;1.70;;
19621;SDS011;9958;33.196;-97.114;2022-10-16T01:16:39;4.63;;;1.80;;
19621;SDS011;9958;33.196;-97.114;2022-10-16T01:19:14;2.78;;;1.90;;
19621;SDS011;9958;33.196;-97.114;2022-10-16T01:21:48;2.55;;;1.70;;
19621;SDS011;9958;33.196;-97.114;2022-10-16T01:24:23;2.45;;;1.60;;
19621;SDS011;9958;33.196;-97.114;2022-10-16T01:27:03;2.13;;;1.92;;
19621;SDS011;9958;33.196;-97.114;2022-10-16T01:29:37;3.13;;;1.83;;
19621;SDS011;9958;33.196;-97.114;2022-10-16T01:32:11;3.50;;;1.77;;
19621;SDS011;9958;33.196;-97.114;2022-10-16T01:34:47;2.20;;;1.80;;
19621;SDS011;9958;33.196;-97.114;2022-10-16T01:37:21;2.15;;;1.38;;
19621;SDS011;9958;33.196;-97.114;2022-10-16T01:39:58;2.50;;;1.80;;
19621;SDS011;9958;33.196;-97.114;2022-10-16T01:42:31;2.20;;;2.00;;
19621;SDS011;9958;33.196;-97.114;2022-10-16T01:45:03;1.88;;;1.70;;
19621;SDS011;9958;33.196;-97.114;2022-10-16T01:47:33;2.80;;;1.80;;
19621;SDS011;9958;33.196;-97.114;2022-10-16T01:50:03;2.65;;;1.88;;
19621;SDS011;9958;33.196;-97.114;2022-10-16T01:52:34;2.47;;;1.77;;
19621;SDS011;9958;33.196;-97.114;2022-10-16T01:55:06;1.73;;;1.60;;
19621;SDS011;9958;33.196;-97.114;2022-10-16T01:57:39;2.95;;;2.00;;
19621;SDS011;9958;33.196;-97.114;2022-10-16T02:00:12;1.67;;;1.58;;
19621;SDS011;9958;33.196;-97.114;2022-10-16T02:02:44;2.38;;;1.73;;
19621;SDS011;9958;33.196;-97.114;2022-10-16T02:05:16;1.73;;;1.63;;
19621;SDS011;9958;33.196;-97.114;2022-10-16T02:07:49;5.72;;;2.55;;
19621;SDS011;9958;33.196;-97.114;2022-10-16T02:10:17;2.03;;;1.65;;
19621;SDS011;9958;33.196;-97.114;2022-10-16T02:12:48;2.10;;;1.88;;
19621;SDS011;9958;33.196;-97.114;2022-10-16T02:15:20;4.50;;;1.67;;
19621;SDS011;9958;33.196;-97.114;2022-10-16T02:17:49;3.22;;;1.90;;
19621;SDS011;9958;33.196;-97.114;2022-10-16T02:20:17;2.33;;;2.05;;
19621;SDS011;9958;33.196;-97.114;2022-10-16T02:22:52;4.32;;;2.20;;
19621;SDS011;9958;33.196;-97.114;2022-10-16T02:25:24;2.22;;;1.85;;
19621;SDS011;9958;33.196;-97.114;2022-10-16T02:28:00;2.88;;;2.17;;
19621;SDS011;9958;33.196;-97.114;2022-10-16T02:30:33;2.17;;;1.85;;
19621;SDS011;9958;33.196;-97.114;2022-10-16T02:33:06;5.13;;;1.83;;
19621;SDS011;9958;33.196;-97.114;2022-10-16T02:35:36;2.47;;;2.05;;
19621;SDS011;9958;33.196;-97.114;2022-10-16T02:38:05;3.08;;;1.92;;
19621;SDS011;9958;33.196;-97.114;2022-10-16T02:40:35;2.83;;;2.17;;
19621;SDS011;9958;33.196;-97.114;2022-10-16T02:43:06;2.10;;;1.90;;
19621;SDS011;9958;33.196;-97.114;2022-10-16T02:45:34;1.88;;;1.75;;
19621;SDS011;9958;33.196;-97.114;2022-10-16T02:48:03;1.75;;;1.60;;
19621;SDS011;9958;33.196;-97.114;2022-10-16T02:50:31;2.38;;;1.88;;
19621;SDS011;9958;33.196;-97.114;2022-10-16T02:53:00;2.58;;;1.75;;
19621;SDS011;9958;33.196;-97.114;2022-10-16T02:55:28;2.10;;;1.90;;
19621;SDS011;9958;33.196;-97.114;2022-10-16T02:57:56;2.58;;;1.90;;
19621;SDS011;9958;33.196;-97.114;2022-10-16T03:00:26;2.47;;;1.80;;
19621;SDS011;9958;33.196;-97.114;2022-10-16T03:02:55;3.13;;;1.92;;
19621;SDS011;9958;33.196;-97.114;2022-10-16T03:05:23;2.35;;;2.10;;
19621;SDS011;9958;33.196;-97.114;2022-10-16T03:07:51;1.80;;;1.63;;
19621;SDS011;9958;33.196;-97.114;2022-10-16T03:10:19;1.88;;;1.77;;
19621;SDS011;9958;33.196;-97.114;2022-10-16T03:12:48;2.70;;;2.03;;
19621;SDS011;9958;33.196;-97.114;2022-10-16T03:15:16;3.10;;;1.88;;
19621;SDS011;9958;33.196;-97.114;2022-10-16T03:17:46;2.40;;;2.20;;
19621;SDS011;9958;33.196;-97.114;2022-10-16T03:20:14;3.08;;;1.70;;
19621;SDS011;9958;33.196;-97.114;2022-10-16T03:22:42;4.22;;;2.10;;
19621;SDS011;9958;33.196;-97.114;2022-10-16T03:25:11;4.40;;;2.15;;
19621;SDS011;9958;33.196;-97.114;2022-10-16T03:27:39;2.90;;;2.00;;
19621;SDS011;9958;33.196;-97.114;2022-10-16T03:30:08;1.88;;;1.77;;
19621;SDS011;9958;33.196;-97.114;2022-10-16T03:32:37;2.58;;;1.88;;
19621;SDS011;9958;33.196;-97.114;2022-10-16T03:35:07;4.68;;;1.90;;
19621;SDS011;9958;33.196;-97.114;2022-10-16T03:37:35;2.40;;;1.77;;
19621;SDS011;9958;33.196;-97.114;2022-10-16T03:40:04;2.83;;;1.88;;
19621;SDS011;9958;33.196;-97.114;2022-10-16T03:42:33;2.97;;;1.80;;
19621;SDS011;9958;33.196;-97.114;2022-10-16T03:45:01;5.30;;;1.90;;
19621;SDS011;9958;33.196;-97.114;2022-10-16T03:47:30;2.63;;;1.67;;
19621;SDS011;9958;33.196;-97.114;2022-10-16T03:49:58;2.00;;;1.85;;
19621;SDS011;9958;33.196;-97.114;2022-10-16T03:52:28;3.45;;;1.63;;
19621;SDS011;9958;33.196;-97.114;2022-10-16T03:54:57;2.40;;;2.17;;
19621;SDS011;9958;33.196;-97.114;2022-10-16T03:57:25;2.80;;;2.00;;
19621;SDS011;9958;33.196;-97.114;2022-10-16T03:59:54;3.70;;;2.40;;
19621;SDS011;9958;33.196;-97.114;2022-10-16T04:02:22;4.50;;;2.05;;
19621;SDS011;9958;33.196;-97.114;2022-10-16T04:04:50;1.95;;;1.85;;
19621;SDS011;9958;33.196;-97.114;2022-10-16T04:07:18;3.40;;;1.92;;
19621;SDS011;9958;33.196;-97.114;2022-10-16T04:09:48;1.83;;;1.73;;
19621;SDS011;9958;33.196;-97.114;2022-10-16T04:12:17;3.03;;;1.80;;
19621;SDS011;9958;33.196;-97.114;2022-10-16T04:14:45;2.63;;;1.90;;
19621;SDS011;9958;33.196;-97.114;2022-10-16T04:17:14;2.22;;;2.03;;
19621;SDS011;9958;33.196;-97.114;2022-10-16T04:19:42;2.10;;;1.90;;
19621;SDS011;9958;33.196;-97.114;2022-10-16T04:22:10;3.63;;;2.03;;
19621;SDS011;9958;33.196;-97.114;2022-10-16T04:24:38;2.40;;;1.70;;
19621;SDS011;9958;33.196;-97.114;2022-10-16T04:27:08;2.42;;;1.77;;
19621;SDS011;9958;33.196;-97.114;2022-10-16T04:29:37;3.83;;;2.40;;
19621;SDS011;9958;33.196;-97.114;2022-10-16T04:32:06;3.78;;;2.20;;
19621;SDS011;9958;33.196;-97.114;2022-10-16T04:34:36;3.42;;;1.90;;
19621;SDS011;9958;33.196;-97.114;2022-10-16T04:37:06;2.97;;;1.90;;
19621;SDS011;9958;33.196;-97.114;2022-10-16T04:39:34;1.92;;;1.80;;
19621;SDS011;9958;33.196;-97.114;2022-10-16T04:42:02;2.17;;;1.95;;
19621;SDS011;9958;33.196;-97.114;2022-10-16T04:44:32;2.13;;;1.90;;
19621;SDS011;9958;33.196;-97.114;2022-10-16T04:47:00;2.40;;;2.03;;
19621;SDS011;9958;33.196;-97.114;2022-10-16T04:49:30;1.90;;;1.80;;
19621;SDS011;9958;33.196;-97.114;2022-10-16T04:51:58;4.72;;;2.17;;
19621;SDS011;9958;33.196;-97.114;2022-10-16T04:54:26;2.40;;;2.03;;
19621;SDS011;9958;33.196;-97.114;2022-10-16T04:56:54;2.70;;;1.83;;
19621;SDS011;9958;33.196;-97.114;2022-10-16T04:59:23;2.55;;;2.10;;
19621;SDS011;9958;33.196;-97.114;2022-10-16T05:01:53;3.05;;;2.10;;
19621;SDS011;9958;33.196;-97.114;2022-10-16T05:04:21;3.78;;;2.20;;
19621;SDS011;9958;33.196;-97.114;2022-10-16T05:06:49;3.47;;;1.88;;
19621;SDS011;9958;33.196;-97.114;2022-10-16T05:09:17;2.60;;;2.08;;
19621;SDS011;9958;33.196;-97.114;2022-10-16T05:11:46;5.18;;;2.15;;
19621;SDS011;9958;33.196;-97.114;2022-10-16T05:14:14;2.92;;;2.10;;
19621;SDS011;9958;33.196;-97.114;2022-10-16T05:16:42;2.22;;;1.95;;
19621;SDS011;9958;33.196;-97.114;2022-10-16T05:19:12;2.92;;;1.95;;
19621;SDS011;9958;33.196;-97.114;2022-10-16T05:21:40;3.38;;;2.20;;
19621;SDS011;9958;33.196;-97.114;2022-10-16T05:24:09;2.67;;;1.88;;
19621;SDS011;9958;33.196;-97.114;2022-10-16T05:26:37;2.75;;;2.10;;
19621;SDS011;9958;33.196;-97.114;2022-10-16T05:29:05;2.70;;;2.38;;
19621;SDS011;9958;33.196;-97.114;2022-10-16T05:31:33;2.63;;;1.98;;
19621;SDS011;9958;33.196;-97.114;2022-10-16T05:34:02;4.43;;;2.20;;
19621;SDS011;9958;33.196;-97.114;2022-10-16T05:36:32;2.30;;;2.10;;
19621;SDS011;9958;33.196;-97.114;2022-10-16T05:39:00;4.15;;;2.13;;
19621;SDS011;9958;33.196;-97.114;2022-10-16T05:41:28;2.75;;;1.92;;
19621;SDS011;9958;33.196;-97.114;2022-10-16T05:43:57;3.35;;;2.25;;
19621;SDS011;9958;33.196;-97.114;2022-10-16T05:46:25;3.35;;;2.60;;
19621;SDS011;9958;33.196;-97.114;2022-10-16T05:48:53;3.47;;;2.10;;
19621;SDS011;9958;33.196;-97.114;2022-10-16T05:51:21;2.90;;;2.15;;
19621;SDS011;9958;33.196;-97.114;2022-10-16T05:53:51;2.22;;;2.03;;
19621;SDS011;9958;33.196;-97.114;2022-10-16T05:56:20;2.75;;;2.15;;
19621;SDS011;9958;33.196;-97.114;2022-10-16T05:58:48;2.58;;;2.10;;
19621;SDS011;9958;33.196;-97.114;2022-10-16T06:01:17;2.10;;;1.90;;
19621;SDS011;9958;33.196;-97.114;2022-10-16T06:03:46;2.25;;;2.05;;
19621;SDS011;9958;33.196;-97.114;2022-10-16T06:06:15;2.70;;;2.10;;
19621;SDS011;9958;33.196;-97.114;2022-10-16T06:08:44;3.25;;;1.98;;
19621;SDS011;9958;33.196;-97.114;2022-10-16T06:11:17;3.55;;;1.80;;
19621;SDS011;9958;33.196;-97.114;2022-10-16T06:13:48;3.08;;;2.20;;
19621;SDS011;9958;33.196;-97.114;2022-10-16T06:16:17;2.40;;;1.67;;
19621;SDS011;9958;33.196;-97.114;2022-10-16T06:18:46;3.85;;;2.20;;
19621;SDS011;9958;33.196;-97.114;2022-10-16T06:21:16;2.13;;;2.00;;
19621;SDS011;9958;33.196;-97.114;2022-10-16T06:23:45;2.55;;;1.85;;
19621;SDS011;9958;33.196;-97.114;2022-10-16T06:26:16;3.13;;;2.10;;
19621;SDS011;9958;33.196;-97.114;2022-10-16T06:28:46;1.90;;;1.80;;
19621;SDS011;9958;33.196;-97.114;2022-10-16T06:31:14;4.82;;;2.55;;
19621;SDS011;9958;33.196;-97.114;2022-10-16T06:33:43;2.10;;;2.00;;
19621;SDS011;9958;33.196;-97.114;2022-10-16T06:36:13;2.40;;;2.20;;
19621;SDS011;9958;33.196;-97.114;2022-10-16T06:38:42;5.65;;;2.10;;
19621;SDS011;9958;33.196;-97.114;2022-10-16T06:41:12;2.03;;;1.90;;
19621;SDS011;9958;33.196;-97.114;2022-10-16T06:43:43;3.17;;;1.88;;
19621;SDS011;9958;33.196;-97.114;2022-10-16T06:46:12;1.90;;;1.75;;
19621;SDS011;9958;33.196;-97.114;2022-10-16T06:48:41;2.60;;;2.00;;
19621;SDS011;9958;33.196;-97.114;2022-10-16T06:51:10;4.13;;;2.15;;
19621;SDS011;9958;33.196;-97.114;2022-10-16T06:53:40;2.92;;;2.00;;
19621;SDS011;9958;33.196;-97.114;2022-10-16T06:56:09;3.20;;;2.00;;
19621;SDS011;9958;33.196;-97.114;2022-10-16T06:58:40;2.65;;;2.20;;
19621;SDS011;9958;33.196;-97.114;2022-10-16T07:01:10;2.50;;;2.20;;
19621;SDS011;9958;33.196;-97.114;2022-10-16T07:03:40;2.00;;;1.67;;
19621;SDS011;9958;33.196;-97.114;2022-10-16T07:06:10;2.70;;;2.10;;
19621;SDS011;9958;33.196;-97.114;2022-10-16T07:08:40;2.20;;;2.00;;
19621;SDS011;9958;33.196;-97.114;2022-10-16T07:11:10;2.05;;;1.95;;
19621;SDS011;9958;33.196;-97.114;2022-10-16T07:13:39;2.50;;;1.92;;
19621;SDS011;9958;33.196;-97.114;2022-10-16T07:16:12;3.92;;;1.77;;
19621;SDS011;9958;33.196;-97.114;2022-10-16T07:18:41;4.07;;;2.42;;
19621;SDS011;9958;33.196;-97.114;2022-10-16T07:21:12;2.85;;;1.90;;
19621;SDS011;9958;33.196;-97.114;2022-10-16T07:23:41;4.90;;;1.98;;
19621;SDS011;9958;33.196;-97.114;2022-10-16T07:26:10;2.20;;;2.00;;
19621;SDS011;9958;33.196;-97.114;2022-10-16T07:28:38;4.18;;;2.30;;
19621;SDS011;9958;33.196;-97.114;2022-10-16T07:31:07;2.08;;;1.98;;
19621;SDS011;9958;33.196;-97.114;2022-10-16T07:33:40;2.60;;;1.80;;
19621;SDS011;9958;33.196;-97.114;2022-10-16T07:36:10;1.98;;;1.65;;
19621;SDS011;9958;33.196;-97.114;2022-10-16T07:38:39;2.70;;;2.30;;
19621;SDS011;9958;33.196;-97.114;2022-10-16T07:41:08;3.80;;;1.88;;
19621;SDS011;9958;33.196;-97.114;2022-10-16T07:43:38;2.85;;;1.75;;
19621;SDS011;9958;33.196;-97.114;2022-10-16T07:46:06;4.00;;;2.45;;
19621;SDS011;9958;33.196;-97.114;2022-10-16T07:48:35;1.98;;;1.80;;
19621;SDS011;9958;33.196;-97.114;2022-10-16T07:51:05;2.42;;;1.88;;
19621;SDS011;9958;33.196;-97.114;2022-10-16T07:53:34;2.85;;;1.92;;
19621;SDS011;9958;33.196;-97.114;2022-10-16T07:56:03;2.20;;;2.00;;
19621;SDS011;9958;33.196;-97.114;2022-10-16T07:58:33;3.30;;;2.15;;
19621;SDS011;9958;33.196;-97.114;2022-10-16T08:01:03;2.65;;;1.73;;
19621;SDS011;9958;33.196;-97.114;2022-10-16T08:03:32;2.33;;;1.98;;
19621;SDS011;9958;33.196;-97.114;2022-10-16T08:06:00;2.70;;;2.10;;
19621;SDS011;9958;33.196;-97.114;2022-10-16T08:08:31;2.15;;;1.90;;
19621;SDS011;9958;33.196;-97.114;2022-10-16T08:10:59;4.50;;;2.10;;
19621;SDS011;9958;33.196;-97.114;2022-10-16T08:13:29;4.72;;;1.95;;
19621;SDS011;9958;33.196;-97.114;2022-10-16T08:15:57;3.97;;;2.28;;
19621;SDS011;9958;33.196;-97.114;2022-10-16T08:18:25;7.47;;;1.80;;
19621;SDS011;9958;33.196;-97.114;2022-10-16T08:20:57;2.47;;;2.00;;
19621;SDS011;9958;33.196;-97.114;2022-10-16T08:23:26;3.25;;;1.80;;
19621;SDS011;9958;33.196;-97.114;2022-10-16T08:26:01;1.85;;;1.60;;
19621;SDS011;9958;33.196;-97.114;2022-10-16T08:28:30;3.40;;;1.77;;
19621;SDS011;9958;33.196;-97.114;2022-10-16T08:31:06;2.30;;;2.03;;
19621;SDS011;9958;33.196;-97.114;2022-10-16T08:33:35;3.92;;;2.10;;
19621;SDS011;9958;33.196;-97.114;2022-10-16T08:36:04;3.10;;;2.00;;
19621;SDS011;9958;33.196;-97.114;2022-10-16T08:38:33;3.10;;;1.80;;
19621;SDS011;9958;33.196;-97.114;2022-10-16T08:41:10;3.35;;;1.73;;
19621;SDS011;9958;33.196;-97.114;2022-10-16T08:44:07;3.25;;;1.90;;
19621;SDS011;9958;33.196;-97.114;2022-10-16T08:46:49;2.33;;;1.60;;
19621;SDS011;9958;33.196;-97.114;2022-10-16T08:49:22;2.08;;;1.88;;
19621;SDS011;9958;33.196;-97.114;2022-10-16T08:51:51;1.80;;;1.70;;
19621;SDS011;9958;33.196;-97.114;2022-10-16T08:54:25;2.92;;;2.00;;
19621;SDS011;9958;33.196;-97.114;2022-10-16T08:57:01;3.53;;;2.03;;
19621;SDS011;9958;33.196;-97.114;2022-10-16T08:59:36;2.20;;;2.00;;
19621;SDS011;9958;33.196;-97.114;2022-10-16T09:02:11;1.90;;;1.73;;
19621;SDS011;9958;33.196;-97.114;2022-10-16T09:05:09;3.75;;;1.63;;
19621;SDS011;9958;33.196;-97.114;2022-10-16T09:08:03;4.05;;;1.45;;
19621;SDS011;9958;33.196;-97.114;2022-10-16T09:10:43;3.42;;;1.58;;
19621;SDS011;9958;33.196;-97.114;2022-10-16T09:13:23;6.20;;;1.60;;
19621;SDS011;9958;33.196;-97.114;2022-10-16T09:15:57;1.55;;;1.45;;
19621;SDS011;9958;33.196;-97.114;2022-10-16T09:18:32;6.03;;;1.98;;
19621;SDS011;9958;33.196;-97.114;2022-10-16T09:21:08;2.13;;;1.33;;
19621;SDS011;9958;33.196;-97.114;2022-10-16T09:23:41;2.75;;;1.10;;
19621;SDS011;9958;33.196;-97.114;2022-10-16T09:26:11;2.42;;;1.08;;
19621;SDS011;9958;33.196;-97.114;2022-10-16T09:28:42;2.97;;;0.85;;
19621;SDS011;9958;33.196;-97.114;2022-10-16T09:31:13;3.03;;;1.15;;
19621;SDS011;9958;33.196;-97.114;2022-10-16T09:33:45;3.47;;;0.70;;
19621;SDS011;9958;33.196;-97.114;2022-10-16T09:36:17;1.38;;;0.60;;
19621;SDS011;9958;33.196;-97.114;2022-10-16T09:38:46;1.55;;;0.60;;
19621;SDS011;9958;33.196;-97.114;2022-10-16T09:41:16;1.60;;;0.60;;
19621;SDS011;9958;33.196;-97.114;2022-10-16T09:43:48;0.50;;;0.45;;
19621;SDS011;9958;33.196;-97.114;2022-10-16T09:46:27;2.10;;;0.60;;
19621;SDS011;9958;33.196;-97.114;2022-10-16T09:48:57;0.93;;;0.50;;
19621;SDS011;9958;33.196;-97.114;2022-10-16T09:51:27;0.73;;;0.52;;
19621;SDS011;9958;33.196;-97.114;2022-10-16T09:53:58;1.58;;;0.60;;
19621;SDS011;9958;33.196;-97.114;2022-10-16T09:56:27;2.30;;;1.02;;
19621;SDS011;9958;33.196;-97.114;2022-10-16T09:58:59;1.13;;;0.75;;
19621;SDS011;9958;33.196;-97.114;2022-10-16T10:01:31;1.40;;;0.70;;
19621;SDS011;9958;33.196;-97.114;2022-10-16T10:04:04;1.48;;;0.60;;
19621;SDS011;9958;33.196;-97.114;2022-10-16T10:06:33;0.65;;;0.57;;
19621;SDS011;9958;33.196;-97.114;2022-10-16T10:09:05;0.70;;;0.70;;
19621;SDS011;9958;33.196;-97.114;2022-10-16T10:11:44;1.38;;;0.80;;
19621;SDS011;9958;33.196;-97.114;2022-10-16T10:14:18;0.52;;;0.52;;
19621;SDS011;9958;33.196;-97.114;2022-10-16T10:16:49;1.33;;;0.60;;
19621;SDS011;9958;33.196;-97.114;2022-10-16T10:19:18;1.08;;;0.65;;
19621;SDS011;9958;33.196;-97.114;2022-10-16T10:21:48;1.58;;;0.73;;
19621;SDS011;9958;33.196;-97.114;2022-10-16T10:24:17;0.60;;;0.60;;
19621;SDS011;9958;33.196;-97.114;2022-10-16T10:26:49;1.98;;;0.85;;
19621;SDS011;9958;33.196;-97.114;2022-10-16T10:29:38;1.17;;;0.65;;
19621;SDS011;9958;33.196;-97.114;2022-10-16T10:32:21;0.60;;;0.60;;
19621;SDS011;9958;33.196;-97.114;2022-10-16T10:34:58;0.90;;;0.80;;
19621;SDS011;9958;33.196;-97.114;2022-10-16T10:37:37;0.43;;;0.43;;
19621;SDS011;9958;33.196;-97.114;2022-10-16T10:40:27;0.77;;;0.77;;
19621;SDS011;9958;33.196;-97.114;2022-10-16T10:43:01;0.65;;;0.65;;
19621;SDS011;9958;33.196;-97.114;2022-10-16T10:45:38;1.58;;;0.75;;
19621;SDS011;9958;33.196;-97.114;2022-10-16T10:48:16;0.50;;;0.50;;
19621;SDS011;9958;33.196;-97.114;2022-10-16T10:50:56;0.63;;;0.63;;
19621;SDS011;9958;33.196;-97.114;2022-10-16T10:53:41;2.05;;;0.68;;
19621;SDS011;9958;33.196;-97.114;2022-10-16T10:56:16;1.48;;;0.73;;
19621;SDS011;9958;33.196;-97.114;2022-10-16T10:59:07;0.80;;;0.73;;
19621;SDS011;9958;33.196;-97.114;2022-10-16T11:02:01;1.42;;;0.75;;
19621;SDS011;9958;33.196;-97.114;2022-10-16T11:04:54;0.47;;;0.47;;
19621;SDS011;9958;33.196;-97.114;2022-10-16T11:07:47;0.70;;;0.70;;
19621;SDS011;9958;33.196;-97.114;2022-10-16T11:10:20;1.50;;;0.75;;
19621;SDS011;9958;33.196;-97.114;2022-10-16T11:12:51;0.65;;;0.60;;
19621;SDS011;9958;33.196;-97.114;2022-10-16T11:15:23;1.20;;;0.73;;
19621;SDS011;9958;33.196;-97.114;2022-10-16T11:17:59;3.40;;;0.95;;
19621;SDS011;9958;33.196;-97.114;2022-10-16T11:20:32;0.98;;;0.60;;
19621;SDS011;9958;33.196;-97.114;2022-10-16T11:23:05;0.70;;;0.70;;
19621;SDS011;9958;33.196;-97.114;2022-10-16T11:25:41;0.70;;;0.68;;
19621;SDS011;9958;33.196;-97.114;2022-10-16T11:28:13;1.75;;;0.70;;
19621;SDS011;9958;33.196;-97.114;2022-10-16T11:30:46;0.57;;;0.57;;
19621;SDS011;9958;33.196;-97.114;2022-10-16T11:33:24;1.17;;;0.63;;
19621;SDS011;9958;33.196;-97.114;2022-10-16T11:36:00;0.70;;;0.55;;
19621;SDS011;9958;33.196;-97.114;2022-10-16T11:38:34;2.08;;;0.75;;
19621;SDS011;9958;33.196;-97.114;2022-10-16T11:41:10;1.00;;;0.60;;
19621;SDS011;9958;33.196;-97.114;2022-10-16T11:43:46;1.65;;;0.85;;
19621;SDS011;9958;33.196;-97.114;2022-10-16T11:46:20;2.65;;;0.70;;
19621;SDS011;9958;33.196;-97.114;2022-10-16T11:48:54;3.45;;;0.90;;
19621;SDS011;9958;33.196;-97.114;2022-10-16T11:51:32;1.55;;;0.65;;
19621;SDS011;9958;33.196;-97.114;2022-10-16T11:54:04;0.70;;;0.70;;
19621;SDS011;9958;33.196;-97.114;2022-10-16T11:56:42;2.13;;;0.90;;
19621;SDS011;9958;33.196;-97.114;2022-10-16T11:59:15;2.08;;;0.77;;
19621;SDS011;9958;33.196;-97.114;2022-10-16T12:01:51;4.38;;;1.15;;
19621;SDS011;9958;33.196;-97.114;2022-10-16T12:04:28;2.05;;;0.85;;
19621;SDS011;9958;33.196;-97.114;2022-10-16T12:07:11;1.95;;;0.77;;
19621;SDS011;9958;33.196;-97.114;2022-10-16T12:09:43;0.55;;;0.55;;
19621;SDS011;9958;33.196;-97.114;2022-10-16T12:12:24;1.40;;;0.80;;
19621;SDS011;9958;33.196;-97.114;2022-10-16T12:14:59;1.75;;;0.80;;
19621;SDS011;9958;33.196;-97.114;2022-10-16T12:17:34;0.60;;;0.60;;
19621;SDS011;9958;33.196;-97.114;2022-10-16T12:20:19;0.57;;;0.57;;
19621;SDS011;9958;33.196;-97.114;2022-10-16T12:22:53;0.82;;;0.55;;
19621;SDS011;9958;33.196;-97.114;2022-10-16T12:25:24;1.05;;;0.75;;
19621;SDS011;9958;33.196;-97.114;2022-10-16T12:27:59;0.93;;;0.80;;
19621;SDS011;9958;33.196;-97.114;2022-10-16T12:30:30;0.70;;;0.70;;
19621;SDS011;9958;33.196;-97.114;2022-10-16T12:33:00;1.83;;;0.85;;
19621;SDS011;9958;33.196;-97.114;2022-10-16T12:35:32;2.88;;;0.88;;
19621;SDS011;9958;33.196;-97.114;2022-10-16T12:38:12;2.10;;;0.90;;
19621;SDS011;9958;33.196;-97.114;2022-10-16T12:40:44;2.70;;;0.90;;
19621;SDS011;9958;33.196;-97.114;2022-10-16T12:46:05;1.20;;;0.73;;
19621;SDS011;9958;33.196;-97.114;2022-10-16T12:48:51;3.08;;;1.00;;
19621;SDS011;9958;33.196;-97.114;2022-10-16T12:51:24;9.80;;;1.30;;
19621;SDS011;9958;33.196;-97.114;2022-10-16T12:54:01;0.88;;;0.85;;
19621;SDS011;9958;33.196;-97.114;2022-10-16T12:56:39;0.77;;;0.77;;
19621;SDS011;9958;33.196;-97.114;2022-10-16T12:59:18;4.07;;;1.92;;
19621;SDS011;9958;33.196;-97.114;2022-10-16T13:01:57;2.90;;;1.10;;
19621;SDS011;9958;33.196;-97.114;2022-10-16T13:04:46;4.10;;;1.10;;
19621;SDS011;9958;33.196;-97.114;2022-10-16T13:07:37;1.15;;;1.05;;
19621;SDS011;9958;33.196;-97.114;2022-10-16T13:10:17;2.08;;;0.95;;
19621;SDS011;9958;33.196;-97.114;2022-10-16T13:13:00;2.60;;;0.90;;
19621;SDS011;9958;33.196;-97.114;2022-10-16T13:15:43;0.77;;;0.77;;
19621;SDS011;9958;33.196;-97.114;2022-10-16T13:18:21;1.02;;;0.80;;
19621;SDS011;9958;33.196;-97.114;2022-10-16T13:21:01;1.52;;;1.00;;
19621;SDS011;9958;33.196;-97.114;2022-10-16T13:23:38;3.17;;;1.20;;
19621;SDS011;9958;33.196;-97.114;2022-10-16T13:26:18;0.82;;;0.82;;
19621;SDS011;9958;33.196;-97.114;2022-10-16T13:28:52;2.60;;;1.35;;
19621;SDS011;9958;33.196;-97.114;2022-10-16T13:31:21;0.88;;;0.88;;
19621;SDS011;9958;33.196;-97.114;2022-10-16T13:33:51;2.10;;;0.90;;
19621;SDS011;9958;33.196;-97.114;2022-10-16T13:36:22;1.10;;;1.10;;
19621;SDS011;9958;33.196;-97.114;2022-10-16T13:39:00;1.52;;;0.90;;
19621;SDS011;9958;33.196;-97.114;2022-10-16T13:41:37;1.23;;;1.05;;
19621;SDS011;9958;33.196;-97.114;2022-10-16T13:44:08;1.75;;;1.00;;
19621;SDS011;9958;33.196;-97.114;2022-10-16T13:46:42;0.85;;;0.85;;
19621;SDS011;9958;33.196;-97.114;2022-10-16T13:49:15;1.13;;;1.02;;
19621;SDS011;9958;33.196;-97.114;2022-10-16T13:51:54;2.58;;;1.00;;
19621;SDS011;9958;33.196;-97.114;2022-10-16T13:54:25;2.30;;;0.93;;
19621;SDS011;9958;33.196;-97.114;2022-10-16T13:56:54;1.35;;;0.90;;
19621;SDS011;9958;33.196;-97.114;2022-10-16T13:59:23;1.00;;;0.90;;
19621;SDS011;9958;33.196;-97.114;2022-10-16T14:01:54;1.00;;;0.90;;
19621;SDS011;9958;33.196;-97.114;2022-10-16T14:04:31;1.10;;;0.98;;
19621;SDS011;9958;33.196;-97.114;2022-10-16T14:07:00;1.25;;;1.00;;
19621;SDS011;9958;33.196;-97.114;2022-10-16T14:09:30;0.68;;;0.68;;
19621;SDS011;9958;33.196;-97.114;2022-10-16T14:12:01;0.82;;;0.73;;
19621;SDS011;9958;33.196;-97.114;2022-10-16T14:14:34;1.13;;;1.00;;
19621;SDS011;9958;33.196;-97.114;2022-10-16T14:17:13;1.92;;;1.30;;
19621;SDS011;9958;33.196;-97.114;2022-10-16T14:19:45;0.70;;;0.70;;
19621;SDS011;9958;33.196;-97.114;2022-10-16T14:22:23;0.80;;;0.80;;
19621;SDS011;9958;33.196;-97.114;2022-10-16T14:24:57;2.30;;;1.00;;
19621;SDS011;9958;33.196;-97.114;2022-10-16T14:27:29;2.30;;;1.48;;
19621;SDS011;9958;33.196;-97.114;2022-10-16T14:30:14;1.20;;;1.20;;
19621;SDS011;9958;33.196;-97.114;2022-10-16T14:32:52;2.30;;;1.20;;
19621;SDS011;9958;33.196;-97.114;2022-10-16T14:35:23;1.27;;;0.93;;
19621;SDS011;9958;33.196;-97.114;2022-10-16T14:37:53;0.88;;;0.85;;
19621;SDS011;9958;33.196;-97.114;2022-10-16T14:40:25;0.98;;;0.90;;
19621;SDS011;9958;33.196;-97.114;2022-10-16T14:42:55;1.13;;;0.95;;
19621;SDS011;9958;33.196;-97.114;2022-10-16T14:45:24;0.80;;;0.80;;
19621;SDS011;9958;33.196;-97.114;2022-10-16T14:47:57;0.80;;;0.80;;
19621;SDS011;9958;33.196;-97.114;2022-10-16T14:50:26;1.02;;;0.82;;
19621;SDS011;9958;33.196;-97.114;2022-10-16T14:52:55;0.93;;;0.93;;
19621;SDS011;9958;33.196;-97.114;2022-10-16T14:55:25;0.55;;;0.55;;
19621;SDS011;9958;33.196;-97.114;2022-10-16T14:57:53;1.63;;;1.20;;
19621;SDS011;9958;33.196;-97.114;2022-10-16T15:00:22;0.80;;;0.80;;
19621;SDS011;9958;33.196;-97.114;2022-10-16T15:02:51;0.80;;;0.80;;
19621;SDS011;9958;33.196;-97.114;2022-10-16T15:05:20;0.85;;;0.85;;